MSC Asli — 9HA2643 — position and weather

sailwx.info

Track history (hours):
 
Tides and Currents Weather Stations Pressure Air Temp Water Temp Dewpoint Dewpoint Depression Visibility Wind Speed Wind Dir Waves Ship Positions

MSC Asli

Last reported at 2017-Oct-18 17:01 UTC. Time now 2017-Oct-18 22:42 UTC.
Position N 31°49' E 034°39'.

Length 217 m; draft 8.3 m.

Type: Ship (hazmat cat A). MMSI: 215113000.

Date/timePositionNaut miles runAvg speedWind from/ knotsBaromVisibWave heightAir tempDewpointWater temp
2017-Oct-18 17:01N 31°49' E 034°39'0 0.0
2017-Oct-18 16:58N 31°49' E 034°39'0 0.0
2017-Oct-18 16:19N 31°49' E 034°39'0 0.0
2017-Oct-18 16:00N 31°49' E 034°39'0 0.0
2017-Oct-18 14:00N 31°49' E 034°39'0 0.0
2017-Oct-18 12:29N 31°49' E 034°39'0 0.0
2017-Oct-18 11:59N 31°49' E 034°39'0 0.0
2017-Oct-18 11:23N 31°49' E 034°39'0 0.0
2017-Oct-18 10:46N 31°49' E 034°39'0 0.0
2017-Oct-18 10:28N 31°49' E 034°39'  
2017-Oct-15 09:32N 31°51' E 034°36'0 0.1
2017-Oct-15 09:23N 31°51' E 034°36'0 0.0
2017-Oct-15 08:53N 31°51' E 034°36'  
2017-Oct-12 14:13N 37°27' E 025°56'312.2
2017-Oct-12 14:00N 37°29' E 025°53'612.2
2017-Oct-12 13:30N 37°35' E 025°51'12412.5
2017-Oct-12 03:37N 39°39' E 025°45'1412.6
2017-Oct-12 02:32N 39°52' E 025°51'112.9
2017-Oct-12 02:25N 39°53' E 025°52'1412.3
2017-Oct-12 01:17N 40°01' E 026°07'310.9
2017-Oct-12 00:59N 40°02' E 026°11'  
2017-Oct-09 09:53N 44°20' E 037°07'511.1
2017-Oct-09 09:28N 44°22' E 037°13'511.2
2017-Oct-09 09:00N 44°24' E 037°19'511.0
2017-Oct-09 08:30N 44°27' E 037°26'511.0
2017-Oct-09 08:00N 44°30' E 037°32'611.2
2017-Oct-09 07:30N 44°32' E 037°39'611.7
2017-Oct-09 07:00N 44°35' E 037°47'510.3
2017-Oct-09 06:30N 44°39' E 037°51'4 8.9
2017-Oct-09 06:00N 44°43' E 037°48'1 1.5
2017-Oct-09 05:30N 44°44' E 037°47'0 0.0
2017-Oct-09 05:00N 44°44' E 037°47'0 0.0
2017-Oct-09 04:30N 44°44' E 037°47'0 0.0
2017-Oct-09 03:59N 44°44' E 037°47'0 0.0
2017-Oct-09 03:29N 44°44' E 037°47'0 0.0
2017-Oct-09 02:59N 44°44' E 037°47'0 0.0
2017-Oct-09 02:29N 44°44' E 037°47'0 0.0
2017-Oct-09 01:58N 44°44' E 037°47'0 0.0
2017-Oct-09 01:28N 44°44' E 037°47'0 0.0
2017-Oct-09 00:58N 44°44' E 037°47'0 0.0
2017-Oct-09 00:28N 44°44' E 037°47'0 0.0
2017-Oct-08 23:58N 44°44' E 037°47'0 0.0
2017-Oct-08 23:30N 44°44' E 037°47'0 0.0
2017-Oct-08 23:00N 44°44' E 037°47'0 0.0
2017-Oct-08 22:30N 44°44' E 037°47'0 0.0
2017-Oct-08 22:00N 44°44' E 037°47'0 0.0
2017-Oct-08 21:29N 44°44' E 037°47'0 0.0
2017-Oct-08 20:59N 44°44' E 037°47'0 0.0
2017-Oct-08 20:29N 44°44' E 037°47'0 0.0
2017-Oct-08 19:59N 44°44' E 037°47'0 0.0
2017-Oct-08 19:29N 44°44' E 037°47'0 0.0
2017-Oct-08 18:58N 44°44' E 037°47'0 0.0
2017-Oct-08 18:28N 44°44' E 037°47'0 0.0
2017-Oct-08 17:55N 44°44' E 037°47'0 0.0
2017-Oct-08 17:25N 44°44' E 037°47'  
Track history (hours):
 
Tides and Currents Weather Stations Pressure Air Temp Water Temp Dewpoint Dewpoint Depression Visibility Wind Speed Wind Dir Waves Ship Positions

MSC Asli

Last reported at 2017-Oct-18 17:01 UTC. Time now 2017-Oct-18 22:42 UTC.
Position N 31°49' E 034°39'.

Length 217 m; draft 8.3 m.

Type: Ship (hazmat cat A). MMSI: 215113000.

Date/timePositionNaut miles runAvg speedWind from/ knotsBaromVisibWave heightAir tempDewpointWater temp
2017-Oct-18 17:01N 31°49' E 034°39'0 0.0
2017-Oct-18 16:58N 31°49' E 034°39'0 0.0
2017-Oct-18 16:19N 31°49' E 034°39'0 0.0
2017-Oct-18 16:00N 31°49' E 034°39'0 0.0
2017-Oct-18 14:00N 31°49' E 034°39'0 0.0
2017-Oct-18 12:29N 31°49' E 034°39'0 0.0
2017-Oct-18 11:59N 31°49' E 034°39'0 0.0
2017-Oct-18 11:23N 31°49' E 034°39'0 0.0
2017-Oct-18 10:46N 31°49' E 034°39'0 0.0
2017-Oct-18 10:28N 31°49' E 034°39'  
2017-Oct-15 09:32N 31°51' E 034°36'0 0.1
2017-Oct-15 09:23N 31°51' E 034°36'0 0.0
2017-Oct-15 08:53N 31°51' E 034°36'  
2017-Oct-12 14:13N 37°27' E 025°56'312.2
2017-Oct-12 14:00N 37°29' E 025°53'612.2
2017-Oct-12 13:30N 37°35' E 025°51'12412.5
2017-Oct-12 03:37N 39°39' E 025°45'1412.6
2017-Oct-12 02:32N 39°52' E 025°51'112.9
2017-Oct-12 02:25N 39°53' E 025°52'1412.3
2017-Oct-12 01:17N 40°01' E 026°07'310.9
2017-Oct-12 00:59N 40°02' E 026°11'  
2017-Oct-09 09:53N 44°20' E 037°07'511.1
2017-Oct-09 09:28N 44°22' E 037°13'511.2
2017-Oct-09 09:00N 44°24' E 037°19'511.0
2017-Oct-09 08:30N 44°27' E 037°26'511.0
2017-Oct-09 08:00N 44°30' E 037°32'611.2
2017-Oct-09 07:30N 44°32' E 037°39'611.7
2017-Oct-09 07:00N 44°35' E 037°47'510.3
2017-Oct-09 06:30N 44°39' E 037°51'4 8.9
2017-Oct-09 06:00N 44°43' E 037°48'1 1.5
2017-Oct-09 05:30N 44°44' E 037°47'0 0.0
2017-Oct-09 05:00N 44°44' E 037°47'0 0.0
2017-Oct-09 04:30N 44°44' E 037°47'0 0.0
2017-Oct-09 03:59N 44°44' E 037°47'0 0.0
2017-Oct-09 03:29N 44°44' E 037°47'0 0.0
2017-Oct-09 02:59N 44°44' E 037°47'0 0.0
2017-Oct-09 02:29N 44°44' E 037°47'0 0.0
2017-Oct-09 01:58N 44°44' E 037°47'0 0.0
2017-Oct-09 01:28N 44°44' E 037°47'0 0.0
2017-Oct-09 00:58N 44°44' E 037°47'0 0.0
2017-Oct-09 00:28N 44°44' E 037°47'0 0.0
2017-Oct-08 23:58N 44°44' E 037°47'0 0.0
2017-Oct-08 23:30N 44°44' E 037°47'0 0.0
2017-Oct-08 23:00N 44°44' E 037°47'0 0.0
2017-Oct-08 22:30N 44°44' E 037°47'0 0.0
2017-Oct-08 22:00N 44°44' E 037°47'0 0.0
2017-Oct-08 21:29N 44°44' E 037°47'0 0.0
2017-Oct-08 20:59N 44°44' E 037°47'0 0.0
2017-Oct-08 20:29N 44°44' E 037°47'0 0.0
2017-Oct-08 19:59N 44°44' E 037°47'0 0.0
2017-Oct-08 19:29N 44°44' E 037°47'0 0.0
2017-Oct-08 18:58N 44°44' E 037°47'0 0.0
2017-Oct-08 18:28N 44°44' E 037°47'0 0.0
2017-Oct-08 17:55N 44°44' E 037°47'0 0.0
2017-Oct-08 17:25N 44°44' E 037°47'  

Dump ship's entire track history